createdAt,value
2022-12-23T19:40:44.818Z,1.30
2022-12-23T19:43:48.899Z,1.40
2022-12-23T19:46:52.813Z,1.23
2022-12-23T19:49:57.388Z,1.47
2022-12-23T19:53:01.692Z,1.63
2022-12-23T19:56:09.541Z,1.53
2022-12-23T19:59:13.425Z,1.60
2022-12-23T20:02:18.164Z,1.27
2022-12-23T20:05:22.563Z,0.90
2022-12-23T20:08:26.430Z,1.07
2022-12-23T20:11:34.761Z,1.93
2022-12-23T20:14:38.730Z,1.43
2022-12-23T20:17:42.529Z,1.07
2022-12-23T20:20:46.481Z,1.00
2022-12-23T20:23:50.960Z,1.60
2022-12-23T20:26:56.301Z,1.83
2022-12-23T20:30:00.217Z,1.50
2022-12-23T20:33:04.079Z,1.20
2022-12-23T20:36:08.983Z,0.90
2022-12-23T20:39:15.034Z,0.93
2022-12-23T20:42:20.313Z,1.07
2022-12-23T20:45:24.447Z,0.83
2022-12-23T20:48:33.800Z,0.73
2022-12-23T20:51:38.668Z,0.90
2022-12-23T20:54:42.631Z,1.20
2022-12-23T20:57:47.867Z,1.30
2022-12-23T21:00:52.190Z,1.03
2022-12-23T21:03:57.179Z,0.60
2022-12-23T21:07:01.036Z,1.20
2022-12-23T21:10:05.669Z,1.23
2022-12-23T21:13:10.895Z,1.10
2022-12-23T21:16:15.099Z,0.70
2022-12-23T21:19:21.089Z,0.90
2022-12-23T21:22:24.959Z,0.70
2022-12-23T21:25:28.882Z,1.03
2022-12-23T21:28:34.250Z,1.00
2022-12-23T21:31:40.002Z,0.80
2022-12-23T21:34:44.041Z,0.80
2022-12-23T21:37:47.849Z,0.97
2022-12-23T21:40:52.048Z,0.67
2022-12-23T21:43:58.525Z,0.70
2022-12-23T21:47:02.917Z,0.73
2022-12-23T21:50:08.135Z,0.50
2022-12-23T21:53:12.524Z,0.93
2022-12-23T21:56:19.258Z,0.80
2022-12-23T21:59:27.182Z,0.80
2022-12-23T22:02:35.239Z,0.60
2022-12-23T22:05:39.138Z,0.30
2022-12-23T22:08:43.362Z,0.57
2022-12-23T22:11:48.286Z,0.43
2022-12-23T22:14:53.526Z,0.57
2022-12-23T22:17:57.354Z,0.40
2022-12-23T22:21:05.612Z,0.30
2022-12-23T22:24:10.137Z,0.77
2022-12-23T22:27:13.947Z,0.57
2022-12-23T22:30:19.329Z,0.50
2022-12-23T22:33:23.163Z,0.50
2022-12-23T22:36:27.422Z,0.57
2022-12-23T22:39:31.340Z,0.90
2022-12-23T22:42:35.353Z,0.50
2022-12-23T22:45:40.623Z,0.77
2022-12-23T22:48:45.900Z,0.63
2022-12-23T22:51:49.792Z,0.37
2022-12-23T22:54:53.602Z,0.50
2022-12-23T22:57:57.526Z,0.73
2022-12-23T23:01:03.638Z,0.77
2022-12-23T23:04:08.062Z,0.90
2022-12-23T23:07:11.996Z,0.37
2022-12-23T23:10:16.045Z,0.63
2022-12-23T23:13:20.382Z,0.50
2022-12-23T23:16:27.281Z,0.63
2022-12-23T23:19:31.271Z,0.63
2022-12-23T23:22:35.229Z,0.60
2022-12-23T23:25:39.390Z,0.60
2022-12-23T23:28:44.083Z,0.40
2022-12-23T23:31:49.399Z,0.60
2022-12-23T23:34:53.246Z,0.63
2022-12-23T23:37:57.150Z,0.93
2022-12-23T23:41:01.154Z,0.70
2022-12-23T23:44:05.177Z,0.90
2022-12-23T23:47:10.468Z,0.77
2022-12-23T23:50:14.452Z,0.47
